createdAt,value
2018-11-12T00:00:33.384Z,11.90
2018-11-12T00:03:04.344Z,11.90
2018-11-12T00:05:34.942Z,11.80
2018-11-12T00:08:05.629Z,11.90
2018-11-12T00:10:36.195Z,11.90
2018-11-12T00:13:06.929Z,11.90
2018-11-12T00:15:37.425Z,11.80
2018-11-12T00:18:08.109Z,11.90
2018-11-12T00:20:38.707Z,11.90
2018-11-12T00:23:09.348Z,11.90
2018-11-12T00:25:39.970Z,11.80
2018-11-12T00:28:10.588Z,11.80
2018-11-12T00:30:41.177Z,11.80
2018-11-12T00:33:11.846Z,11.80
2018-11-12T00:35:42.448Z,11.80
2018-11-12T00:38:13.019Z,11.80
2018-11-12T00:40:43.628Z,11.80
2018-11-12T00:43:14.164Z,11.80
2018-11-12T00:45:44.739Z,11.80
2018-11-12T00:48:15.351Z,11.80
2018-11-12T00:50:45.921Z,11.80
2018-11-12T00:53:16.606Z,11.80
2018-11-12T00:55:47.160Z,11.70
2018-11-12T00:58:17.729Z,11.70
2018-11-12T01:00:48.291Z,11.70
2018-11-12T01:03:18.905Z,11.70
2018-11-12T01:05:49.482Z,11.70
2018-11-12T01:08:20.059Z,11.70
2018-11-12T01:10:50.660Z,11.70
2018-11-12T01:13:21.200Z,11.70
2018-11-12T01:15:56.470Z,11.60
2018-11-12T01:18:27.069Z,11.60
2018-11-12T01:20:57.592Z,11.60
2018-11-12T01:23:28.216Z,11.60
2018-11-12T01:25:58.697Z,11.70
2018-11-12T01:28:29.329Z,11.70
2018-11-12T01:31:05.896Z,11.70
2018-11-12T01:33:38.338Z,11.70
2018-11-12T01:36:08.887Z,11.70
2018-11-12T01:38:39.452Z,11.80
2018-11-12T01:41:09.961Z,11.70
2018-11-12T01:43:40.567Z,11.70
2018-11-12T01:46:11.114Z,11.70
2018-11-12T01:48:41.714Z,11.80
2018-11-12T01:51:12.248Z,11.80
2018-11-12T01:53:42.865Z,11.80
2018-11-12T01:56:13.379Z,11.80
2018-11-12T01:58:44.012Z,11.80
2018-11-12T02:01:14.483Z,11.80
2018-11-12T02:03:45.003Z,11.80
2018-11-12T02:06:15.585Z,11.80
2018-11-12T02:08:46.315Z,11.80
2018-11-12T02:11:16.823Z,11.70
2018-11-12T02:13:47.716Z,11.70
2018-11-12T02:16:18.314Z,11.70
2018-11-12T02:18:48.809Z,11.70
2018-11-12T02:21:19.429Z,11.70
2018-11-12T02:23:50.001Z,11.70
2018-11-12T02:26:20.477Z,11.60
2018-11-12T02:28:50.991Z,11.60
2018-11-12T02:31:21.565Z,11.60
2018-11-12T02:33:52.245Z,11.60
2018-11-12T02:36:22.728Z,11.60
2018-11-12T02:38:53.310Z,11.60
2018-11-12T02:41:23.868Z,11.60
2018-11-12T02:43:54.484Z,11.60
2018-11-12T02:46:25.050Z,11.60
2018-11-12T02:48:55.626Z,11.60
2018-11-12T02:51:26.135Z,11.60
2018-11-12T02:53:56.668Z,11.60
2018-11-12T02:56:27.188Z,11.60
2018-11-12T02:58:57.688Z,11.50
2018-11-12T03:01:28.350Z,11.60
2018-11-12T03:03:58.972Z,11.60
2018-11-12T03:06:29.549Z,11.60
2018-11-12T03:09:00.165Z,11.60
2018-11-12T03:11:30.725Z,11.60
2018-11-12T03:14:01.365Z,11.60
2018-11-12T03:16:31.969Z,11.60
2018-11-12T03:19:02.605Z,11.60
2018-11-12T03:21:33.160Z,11.60
2018-11-12T03:24:03.819Z,11.60
2018-11-12T03:26:34.335Z,11.60
2018-11-12T03:29:05.061Z,11.60
2018-11-12T03:31:35.691Z,11.60
2018-11-12T03:34:06.631Z,11.60
2018-11-12T03:36:37.081Z,11.60
2018-11-12T03:39:10.403Z,11.60
2018-11-12T03:41:40.871Z,11.60
2018-11-12T03:44:11.379Z,11.60
2018-11-12T03:46:41.917Z,11.60
2018-11-12T03:49:12.529Z,11.60
2018-11-12T03:51:42.973Z,11.60
2018-11-12T03:54:13.513Z,11.60
2018-11-12T03:56:44.068Z,11.60
2018-11-12T03:59:14.715Z,11.70
2018-11-12T04:01:46.041Z,11.70
2018-11-12T04:04:17.599Z,11.70
2018-11-12T04:06:48.115Z,11.70
2018-11-12T04:09:18.688Z,11.70
2018-11-12T04:11:49.265Z,11.80
2018-11-12T04:14:19.744Z,11.80
2018-11-12T04:16:56.184Z,11.80
2018-11-12T04:19:26.711Z,11.80
2018-11-12T04:21:57.210Z,11.80
2018-11-12T04:24:27.947Z,11.80
2018-11-12T04:26:58.581Z,11.80
2018-11-12T04:29:29.124Z,11.80
2018-11-12T04:31:59.662Z,11.80
2018-11-12T04:34:30.347Z,11.80
2018-11-12T04:37:00.911Z,11.80
2018-11-12T04:39:31.461Z,11.80
2018-11-12T04:42:02.022Z,11.80
2018-11-12T04:44:32.728Z,11.80
2018-11-12T04:47:03.334Z,11.80
2018-11-12T04:49:34.060Z,11.80
2018-11-12T04:52:04.628Z,11.80
2018-11-12T04:54:35.220Z,11.70
2018-11-12T04:57:06.309Z,11.70
2018-11-12T04:59:37.065Z,11.70
2018-11-12T05:02:07.714Z,11.70
2018-11-12T05:04:38.177Z,11.70
2018-11-12T05:07:08.783Z,11.70
2018-11-12T05:09:39.465Z,11.70
2018-11-12T05:12:10.160Z,11.70
2018-11-12T05:14:46.237Z,11.60
2018-11-12T05:17:16.779Z,11.60
2018-11-12T05:19:52.640Z,11.60
2018-11-12T05:22:23.185Z,11.60
2018-11-12T05:24:54.990Z,11.60
2018-11-12T05:27:25.447Z,11.60
2018-11-12T05:29:56.042Z,11.60
2018-11-12T05:32:26.511Z,11.60
2018-11-12T05:34:57.209Z,11.60
2018-11-12T05:37:27.604Z,11.60
2018-11-12T05:39:58.059Z,11.60
2018-11-12T05:42:28.568Z,11.70
2018-11-12T05:44:59.903Z,11.70
2018-11-12T05:47:30.569Z,11.70
2018-11-12T05:50:01.652Z,11.70
2018-11-12T05:52:32.146Z,11.70
2018-11-12T05:55:02.837Z,11.70
2018-11-12T05:57:33.829Z,11.70
2018-11-12T06:00:04.580Z,11.70
2018-11-12T06:02:35.077Z,11.70
2018-11-12T06:05:06.415Z,11.70
2018-11-12T06:07:37.457Z,11.70
2018-11-12T06:10:12.071Z,11.70
2018-11-12T06:12:43.144Z,11.70
2018-11-12T06:15:14.382Z,11.70
2018-11-12T06:17:45.749Z,11.70
2018-11-12T06:20:21.960Z,11.60
2018-11-12T06:22:52.640Z,11.60
2018-11-12T06:25:25.001Z,11.60
2018-11-12T06:27:55.668Z,11.60
2018-11-12T06:30:31.935Z,11.60
2018-11-12T06:33:02.553Z,11.60
2018-11-12T06:35:33.180Z,11.60
2018-11-12T06:38:03.870Z,11.50
2018-11-12T06:40:34.424Z,11.50
2018-11-12T06:43:05.037Z,11.50
2018-11-12T06:45:35.839Z,11.50
2018-11-12T06:48:06.604Z,11.50
2018-11-12T06:50:37.281Z,11.50
2018-11-12T06:53:08.060Z,11.50
2018-11-12T06:55:38.758Z,11.50
2018-11-12T06:58:09.348Z,11.50
2018-11-12T07:00:39.956Z,11.50
2018-11-12T07:03:10.633Z,11.50
2018-11-12T07:05:41.464Z,11.50
2018-11-12T07:08:12.125Z,11.50
2018-11-12T07:10:42.800Z,11.50
2018-11-12T07:13:13.413Z,11.50
2018-11-12T07:15:44.180Z,11.50
2018-11-12T07:18:14.729Z,11.50
2018-11-12T07:20:45.368Z,11.50
2018-11-12T07:23:16.044Z,11.50
2018-11-12T07:25:46.745Z,11.50
2018-11-12T07:28:17.313Z,11.50
2018-11-12T07:30:48.102Z,11.50
2018-11-12T07:33:18.853Z,11.50
2018-11-12T07:35:49.502Z,11.60
2018-11-12T07:38:20.158Z,11.60
2018-11-12T07:40:50.858Z,11.60
2018-11-12T07:43:21.508Z,11.60
2018-11-12T07:45:52.251Z,11.60
2018-11-12T07:48:22.855Z,11.60
2018-11-12T07:50:53.575Z,11.70
2018-11-12T07:53:24.156Z,11.70
2018-11-12T07:55:54.856Z,11.70
2018-11-12T07:58:25.546Z,11.70
2018-11-12T08:00:56.220Z,11.70
2018-11-12T08:03:26.883Z,11.70
2018-11-12T08:05:57.798Z,11.70
2018-11-12T08:08:28.540Z,11.70
2018-11-12T08:10:59.224Z,11.70
2018-11-12T08:13:29.760Z,11.70
2018-11-12T08:16:00.548Z,11.70
2018-11-12T08:18:31.253Z,11.70
2018-11-12T08:21:01.917Z,11.70
2018-11-12T08:23:32.556Z,11.70
2018-11-12T08:26:03.314Z,11.70
2018-11-12T08:28:33.839Z,11.70
2018-11-12T08:31:04.508Z,11.70
2018-11-12T08:33:35.149Z,11.70
2018-11-12T08:36:06.053Z,11.70
2018-11-12T08:38:36.699Z,11.70
2018-11-12T08:41:07.558Z,11.80
2018-11-12T08:43:38.131Z,11.80
2018-11-12T08:46:20.660Z,11.70
2018-11-12T08:48:51.465Z,11.80
2018-11-12T08:51:22.214Z,11.70
2018-11-12T08:53:52.820Z,11.70
2018-11-12T08:56:23.495Z,11.80
2018-11-12T08:58:54.131Z,11.80
2018-11-12T09:01:24.893Z,11.80
2018-11-12T09:03:55.595Z,11.80
2018-11-12T09:06:26.405Z,11.80
2018-11-12T09:08:57.131Z,11.80
2018-11-12T09:11:27.761Z,11.80
2018-11-12T09:13:58.335Z,11.80
2018-11-12T09:16:29.154Z,11.80
2018-11-12T09:18:59.789Z,11.80
2018-11-12T09:21:36.123Z,11.80
2018-11-12T09:24:41.566Z,11.80
2018-11-12T09:34:04.889Z,11.90
2018-11-12T09:36:48.634Z,11.90
2018-11-12T09:42:35.751Z,11.90
2018-11-12T09:45:16.103Z,12.00
2018-11-12T09:48:04.095Z,12.00
2018-11-12T09:50:49.204Z,12.00
2018-11-12T09:53:49.007Z,12.00
2018-11-12T09:57:07.350Z,12.00
2018-11-12T10:00:25.727Z,12.10
2018-11-12T10:03:25.482Z,12.10
2018-11-12T10:07:14.766Z,12.10
2018-11-12T10:14:28.877Z,12.20
2018-11-12T10:41:41.209Z,12.20
2018-11-12T10:44:24.405Z,12.40
2018-11-12T11:12:16.396Z,12.70
2018-11-12T11:14:47.404Z,12.80
2018-11-12T11:17:18.456Z,12.80
2018-11-12T11:19:49.884Z,12.80
2018-11-12T11:22:21.333Z,12.90
2018-11-12T11:24:52.459Z,12.90
2018-11-12T11:27:23.756Z,12.90
2018-11-12T11:29:54.677Z,12.90
2018-11-12T11:32:25.720Z,13.00
2018-11-12T11:34:56.836Z,13.00
2018-11-12T11:37:27.977Z,13.00
2018-11-12T11:39:58.944Z,13.00
2018-11-12T11:42:30.094Z,13.00
2018-11-12T11:45:01.056Z,13.00
2018-11-12T11:47:33.264Z,13.00
2018-11-12T11:50:04.328Z,13.10
2018-11-12T11:52:35.009Z,13.10
2018-11-12T11:55:07.282Z,13.10
2018-11-12T11:57:38.632Z,13.10
2018-11-12T12:00:18.229Z,13.10
2018-11-12T12:02:50.452Z,13.10
2018-11-12T12:05:22.256Z,13.20
2018-11-12T12:07:54.044Z,13.20
2018-11-12T12:10:25.264Z,13.20
2018-11-12T12:12:56.249Z,13.30
2018-11-12T12:15:27.251Z,13.30
2018-11-12T12:17:58.295Z,13.30
2018-11-12T12:20:29.309Z,13.30
2018-11-12T12:23:00.172Z,13.40
2018-11-12T12:25:31.443Z,13.40
2018-11-12T12:28:02.453Z,13.40
2018-11-12T12:30:34.092Z,13.50
2018-11-12T12:33:05.258Z,13.50
2018-11-12T12:35:36.241Z,13.50
2018-11-12T12:38:07.343Z,13.50
2018-11-12T12:40:38.427Z,13.50
2018-11-12T12:43:09.492Z,13.50
2018-11-12T12:45:40.689Z,13.50
2018-11-12T12:48:11.556Z,13.50
2018-11-12T12:50:42.574Z,13.50
2018-11-12T12:53:13.631Z,13.50
2018-11-12T12:55:44.927Z,13.50
2018-11-12T12:58:15.867Z,13.50
2018-11-12T13:00:46.761Z,13.50
2018-11-12T13:03:17.758Z,13.50
2018-11-12T13:05:48.797Z,13.50
2018-11-12T13:08:19.715Z,13.50
2018-11-12T13:10:54.584Z,13.50
2018-11-12T13:13:25.536Z,13.50
2018-11-12T13:15:56.586Z,13.40
2018-11-12T13:18:27.129Z,13.40
2018-11-12T13:20:57.868Z,13.40
2018-11-12T13:23:28.390Z,13.40
2018-11-12T13:25:59.065Z,13.40
2018-11-12T13:28:29.798Z,13.40
2018-11-12T13:31:00.649Z,13.40
2018-11-12T13:33:31.692Z,13.40
2018-11-12T13:36:02.630Z,13.40
2018-11-12T13:38:33.270Z,13.40
2018-11-12T13:41:04.140Z,13.40
2018-11-12T13:43:34.751Z,13.40
2018-11-12T13:46:05.493Z,13.40
2018-11-12T13:48:36.310Z,13.40
2018-11-12T13:51:07.296Z,13.30
2018-11-12T13:53:37.945Z,13.30
2018-11-12T13:56:09.266Z,13.30
2018-11-12T13:58:39.805Z,13.30
2018-11-12T14:01:10.462Z,13.30
2018-11-12T14:03:41.456Z,13.30
2018-11-12T14:06:12.054Z,13.30
2018-11-12T14:08:42.586Z,13.30
2018-11-12T14:11:13.357Z,13.20
2018-11-12T14:13:43.942Z,13.20
2018-11-12T14:16:14.553Z,13.20
2018-11-12T14:18:45.546Z,13.20
2018-11-12T14:21:16.576Z,13.20
2018-11-12T14:23:47.590Z,13.20
2018-11-12T14:26:18.397Z,13.20
2018-11-12T14:28:49.116Z,13.20
2018-11-12T14:31:20.166Z,13.20
2018-11-12T14:33:50.987Z,13.20
2018-11-12T14:36:21.728Z,13.10
2018-11-12T14:38:53.503Z,13.10
2018-11-12T14:41:24.246Z,13.10
2018-11-12T14:43:54.947Z,13.10
2018-11-12T14:46:25.709Z,13.10
2018-11-12T14:48:56.376Z,13.10
2018-11-12T14:51:27.074Z,13.10
2018-11-12T14:53:57.627Z,13.10
2018-11-12T14:56:28.536Z,13.00
2018-11-12T14:58:59.102Z,13.00
2018-11-12T15:01:29.817Z,13.00
2018-11-12T15:04:00.399Z,13.00
2018-11-12T15:06:31.141Z,13.00
2018-11-12T15:09:01.805Z,13.10
2018-11-12T15:11:32.875Z,13.10
2018-11-12T15:14:03.605Z,13.10
2018-11-12T15:16:34.329Z,13.10
2018-11-12T15:19:05.200Z,13.10
2018-11-12T15:21:36.025Z,13.10
2018-11-12T15:24:07.201Z,13.10
2018-11-12T15:26:37.971Z,13.10
2018-11-12T15:29:08.712Z,13.10
2018-11-12T15:31:39.746Z,13.10
2018-11-12T15:34:11.361Z,13.10
2018-11-12T15:36:43.152Z,13.10
2018-11-12T15:39:34.815Z,13.10
2018-11-12T15:42:08.876Z,13.10
2018-11-12T15:44:39.811Z,13.10
2018-11-12T15:47:10.762Z,13.10
2018-11-12T15:49:41.568Z,13.10
2018-11-12T15:52:12.411Z,13.00
2018-11-12T15:54:43.048Z,13.00
2018-11-12T15:57:13.868Z,13.10
2018-11-12T15:59:44.574Z,13.00
2018-11-12T16:02:15.273Z,13.00
2018-11-12T16:04:45.945Z,13.00
2018-11-12T16:07:16.515Z,13.00
2018-11-12T16:09:47.488Z,13.00
2018-11-12T16:12:18.352Z,13.00
2018-11-12T16:14:49.251Z,13.00
2018-11-12T16:17:22.984Z,13.00
2018-11-12T16:19:53.668Z,13.00
2018-11-12T16:22:27.845Z,13.00
2018-11-12T16:24:59.146Z,12.90
2018-11-12T16:27:42.416Z,13.00
2018-11-12T16:30:14.119Z,13.00
2018-11-12T16:32:45.269Z,12.90
2018-11-12T16:35:18.001Z,12.90
2018-11-12T16:37:49.560Z,12.90
2018-11-12T16:40:20.461Z,12.90
2018-11-12T16:42:51.539Z,12.90
2018-11-12T16:45:22.150Z,12.90
2018-11-12T16:47:52.804Z,12.90
2018-11-12T16:50:24.161Z,12.90
2018-11-12T16:52:54.745Z,12.90
2018-11-12T16:55:25.401Z,12.90
2018-11-12T16:57:55.917Z,12.90
2018-11-12T17:00:26.651Z,12.90
2018-11-12T17:02:57.112Z,12.90
2018-11-12T17:05:27.797Z,12.90
2018-11-12T17:07:59.396Z,12.80
2018-11-12T17:10:30.059Z,12.80
2018-11-12T17:13:00.943Z,12.80
2018-11-12T17:15:31.958Z,12.80
2018-11-12T17:18:02.809Z,12.80
2018-11-12T17:20:33.445Z,12.80
2018-11-12T17:23:04.022Z,12.80
2018-11-12T17:25:34.694Z,12.70
2018-11-12T17:28:05.350Z,12.70
2018-11-12T17:30:35.980Z,12.70
2018-11-12T17:33:07.004Z,12.70
2018-11-12T17:35:37.734Z,12.70
2018-11-12T17:38:08.330Z,12.70
2018-11-12T17:40:38.929Z,12.70
2018-11-12T17:43:09.547Z,12.70
2018-11-12T17:45:40.089Z,12.60
2018-11-12T17:48:10.684Z,12.60
2018-11-12T17:50:41.333Z,12.70
2018-11-12T17:53:11.826Z,12.60
2018-11-12T17:55:42.445Z,12.70
2018-11-12T17:58:12.885Z,12.70
2018-11-12T18:00:43.460Z,12.60
2018-11-12T18:03:13.855Z,12.60
2018-11-12T18:05:44.377Z,12.70
2018-11-12T18:08:15.011Z,12.60
2018-11-12T18:10:45.661Z,12.60
2018-11-12T18:13:16.564Z,12.60
2018-11-12T18:15:47.745Z,12.60
2018-11-12T18:18:18.576Z,12.60
2018-11-12T18:20:49.595Z,12.60
2018-11-12T18:23:20.698Z,12.60
2018-11-12T18:25:52.509Z,12.60
2018-11-12T18:28:23.497Z,12.60
2018-11-12T18:30:54.466Z,12.50
2018-11-12T18:33:25.300Z,12.50
2018-11-12T18:35:56.166Z,12.50
2018-11-12T18:38:26.903Z,12.50
2018-11-12T18:47:22.688Z,12.50
2018-11-12T18:49:54.554Z,12.50
2018-11-12T18:52:27.503Z,12.50
2018-11-12T18:54:59.673Z,12.50
2018-11-12T18:57:33.902Z,12.50
2018-11-12T19:00:06.641Z,12.50
2018-11-12T19:02:38.447Z,12.40
2018-11-12T19:05:28.603Z,12.40
2018-11-12T19:08:05.443Z,12.40
2018-11-12T19:10:39.383Z,12.40
2018-11-12T19:13:12.259Z,12.30
2018-11-12T19:15:46.983Z,12.30
2018-11-12T19:18:18.376Z,12.30
2018-11-12T19:20:59.589Z,12.30
2018-11-12T19:23:40.432Z,12.30
2018-11-12T19:26:13.067Z,12.30
2018-11-12T19:28:45.532Z,12.30
2018-11-12T19:31:16.952Z,12.30
2018-11-12T19:33:48.807Z,12.30
2018-11-12T19:36:21.120Z,12.30
2018-11-12T19:38:52.636Z,12.30
2018-11-12T19:41:24.169Z,12.20
2018-11-12T19:43:55.689Z,12.20
2018-11-12T19:46:27.444Z,12.20
2018-11-12T19:48:59.172Z,12.20
2018-11-12T19:51:31.396Z,12.20
2018-11-12T19:54:02.920Z,12.20
2018-11-12T19:56:34.690Z,12.20
2018-11-12T19:59:06.433Z,12.20
2018-11-12T20:01:44.670Z,12.20
2018-11-12T20:04:18.950Z,12.20
2018-11-12T20:06:55.128Z,12.20
2018-11-12T20:09:31.044Z,12.20
2018-11-12T20:12:08.924Z,12.20
2018-11-12T20:14:46.632Z,12.20
2018-11-12T20:17:29.346Z,12.20
2018-11-12T20:20:15.625Z,12.20
2018-11-12T20:22:53.643Z,12.20
2018-11-12T20:25:28.791Z,12.20
2018-11-12T20:28:05.986Z,12.20
2018-11-12T20:30:40.082Z,12.20
2018-11-12T20:33:11.923Z,12.10
2018-11-12T20:35:43.599Z,12.10
2018-11-12T20:38:14.514Z,12.10
